sensor_id;sensor_type;location;lat;lon;timestamp;temperature;humidity
14119;DHT22;7138;49.246;9.100;2022-09-09T00:00:55;14.70;99.90
14119;DHT22;7138;49.246;9.100;2022-09-09T00:03:35;14.60;99.90
14119;DHT22;7138;49.246;9.100;2022-09-09T00:06:16;14.60;99.90
14119;DHT22;7138;49.246;9.100;2022-09-09T00:08:55;14.70;99.90
14119;DHT22;7138;49.246;9.100;2022-09-09T00:11:33;14.70;99.90
14119;DHT22;7138;49.246;9.100;2022-09-09T00:14:11;14.70;99.90
14119;DHT22;7138;49.246;9.100;2022-09-09T00:16:47;14.70;99.90
14119;DHT22;7138;49.246;9.100;2022-09-09T00:19:22;14.60;99.90
14119;DHT22;7138;49.246;9.100;2022-09-09T00:21:58;14.60;99.90
14119;DHT22;7138;49.246;9.100;2022-09-09T00:24:43;14.60;99.90
14119;DHT22;7138;49.246;9.100;2022-09-09T00:27:16;14.60;99.90
14119;DHT22;7138;49.246;9.100;2022-09-09T00:30:00;14.70;99.90
14119;DHT22;7138;49.246;9.100;2022-09-09T00:32:37;14.70;99.90
14119;DHT22;7138;49.246;9.100;2022-09-09T00:35:16;14.70;99.90
14119;DHT22;7138;49.246;9.100;2022-09-09T00:37:44;14.80;99.90
14119;DHT22;7138;49.246;9.100;2022-09-09T00:40:23;14.80;99.90
14119;DHT22;7138;49.246;9.100;2022-09-09T00:43:03;14.80;99.90
14119;DHT22;7138;49.246;9.100;2022-09-09T00:46:16;14.80;99.90
14119;DHT22;7138;49.246;9.100;2022-09-09T00:48:58;14.80;99.90
14119;DHT22;7138;49.246;9.100;2022-09-09T00:51:39;14.80;99.90
14119;DHT22;7138;49.246;9.100;2022-09-09T00:54:27;14.80;99.90
14119;DHT22;7138;49.246;9.100;2022-09-09T00:57:10;14.80;99.90
14119;DHT22;7138;49.246;9.100;2022-09-09T00:59:47;14.80;99.90
14119;DHT22;7138;49.246;9.100;2022-09-09T01:02:26;14.90;99.90
14119;DHT22;7138;49.246;9.100;2022-09-09T01:05:01;14.90;99.90
14119;DHT22;7138;49.246;9.100;2022-09-09T01:07:32;14.90;99.90
14119;DHT22;7138;49.246;9.100;2022-09-09T01:10:00;14.90;99.90
14119;DHT22;7138;49.246;9.100;2022-09-09T01:12:35;14.90;99.90
14119;DHT22;7138;49.246;9.100;2022-09-09T01:15:11;14.80;99.90
14119;DHT22;7138;49.246;9.100;2022-09-09T01:17:50;14.90;99.90
14119;DHT22;7138;49.246;9.100;2022-09-09T01:20:24;14.80;99.90
14119;DHT22;7138;49.246;9.100;2022-09-09T01:23:10;14.80;99.90
14119;DHT22;7138;49.246;9.100;2022-09-09T01:26:20;14.80;99.90
14119;DHT22;7138;49.246;9.100;2022-09-09T01:28:51;14.80;99.90
14119;DHT22;7138;49.246;9.100;2022-09-09T01:31:21;14.90;99.90
14119;DHT22;7138;49.246;9.100;2022-09-09T01:33:49;14.80;99.90
14119;DHT22;7138;49.246;9.100;2022-09-09T01:36:22;14.90;99.90
14119;DHT22;7138;49.246;9.100;2022-09-09T01:38:52;14.90;99.90
14119;DHT22;7138;49.246;9.100;2022-09-09T01:41:19;15.00;99.90
14119;DHT22;7138;49.246;9.100;2022-09-09T01:43:47;15.00;99.90
14119;DHT22;7138;49.246;9.100;2022-09-09T01:46:13;14.90;99.90
14119;DHT22;7138;49.246;9.100;2022-09-09T01:48:40;14.90;99.90
14119;DHT22;7138;49.246;9.100;2022-09-09T01:51:08;14.90;99.90
14119;DHT22;7138;49.246;9.100;2022-09-09T01:53:34;14.90;99.90
14119;DHT22;7138;49.246;9.100;2022-09-09T01:56:07;14.90;99.90
14119;DHT22;7138;49.246;9.100;2022-09-09T01:58:48;14.90;99.90
14119;DHT22;7138;49.246;9.100;2022-09-09T02:01:35;14.90;99.90
14119;DHT22;7138;49.246;9.100;2022-09-09T02:04:27;14.90;99.90
14119;DHT22;7138;49.246;9.100;2022-09-09T02:07:01;14.90;99.90
14119;DHT22;7138;49.246;9.100;2022-09-09T02:09:29;14.90;99.90
14119;DHT22;7138;49.246;9.100;2022-09-09T02:11:59;14.90;99.90
14119;DHT22;7138;49.246;9.100;2022-09-09T02:14:36;14.80;99.90
14119;DHT22;7138;49.246;9.100;2022-09-09T02:17:09;14.80;99.90
14119;DHT22;7138;49.246;9.100;2022-09-09T02:19:40;14.80;99.90
14119;DHT22;7138;49.246;9.100;2022-09-09T02:22:11;14.90;99.90
14119;DHT22;7138;49.246;9.100;2022-09-09T02:24:39;14.90;99.90
14119;DHT22;7138;49.246;9.100;2022-09-09T02:27:08;14.80;99.90
14119;DHT22;7138;49.246;9.100;2022-09-09T02:29:40;14.80;99.90
14119;DHT22;7138;49.246;9.100;2022-09-09T02:32:11;14.90;99.90
14119;DHT22;7138;49.246;9.100;2022-09-09T02:34:44;14.90;99.90
14119;DHT22;7138;49.246;9.100;2022-09-09T02:37:15;14.90;99.90
14119;DHT22;7138;49.246;9.100;2022-09-09T02:39:46;14.90;99.90
14119;DHT22;7138;49.246;9.100;2022-09-09T02:42:12;14.90;99.90
14119;DHT22;7138;49.246;9.100;2022-09-09T02:44:41;14.90;99.90
14119;DHT22;7138;49.246;9.100;2022-09-09T02:47:20;14.80;99.90
14119;DHT22;7138;49.246;9.100;2022-09-09T02:50:05;14.80;99.90
14119;DHT22;7138;49.246;9.100;2022-09-09T02:52:52;14.80;99.90
14119;DHT22;7138;49.246;9.100;2022-09-09T02:55:35;14.80;99.90
14119;DHT22;7138;49.246;9.100;2022-09-09T02:58:06;14.80;99.90
14119;DHT22;7138;49.246;9.100;2022-09-09T03:00:38;14.80;99.90
14119;DHT22;7138;49.246;9.100;2022-09-09T03:03:05;14.80;99.90
14119;DHT22;7138;49.246;9.100;2022-09-09T03:05:32;14.80;99.90
14119;DHT22;7138;49.246;9.100;2022-09-09T03:07:58;14.80;99.90
14119;DHT22;7138;49.246;9.100;2022-09-09T03:10:24;14.70;99.90
14119;DHT22;7138;49.246;9.100;2022-09-09T03:12:50;14.70;99.90
14119;DHT22;7138;49.246;9.100;2022-09-09T03:15:16;14.70;99.90
14119;DHT22;7138;49.246;9.100;2022-09-09T03:17:44;14.60;99.90
14119;DHT22;7138;49.246;9.100;2022-09-09T03:20:10;14.60;99.90
14119;DHT22;7138;49.246;9.100;2022-09-09T03:22:36;14.60;99.90
14119;DHT22;7138;49.246;9.100;2022-09-09T03:25:02;14.50;99.90
14119;DHT22;7138;49.246;9.100;2022-09-09T03:27:28;14.60;99.90
14119;DHT22;7138;49.246;9.100;2022-09-09T03:29:54;14.60;99.90
14119;DHT22;7138;49.246;9.100;2022-09-09T03:32:21;14.50;99.90
14119;DHT22;7138;49.246;9.100;2022-09-09T03:34:49;14.60;99.90
14119;DHT22;7138;49.246;9.100;2022-09-09T03:37:15;14.60;99.90
14119;DHT22;7138;49.246;9.100;2022-09-09T03:39:41;14.60;99.90
14119;DHT22;7138;49.246;9.100;2022-09-09T03:42:07;14.60;99.90
14119;DHT22;7138;49.246;9.100;2022-09-09T03:44:32;14.60;99.90
14119;DHT22;7138;49.246;9.100;2022-09-09T03:46:58;14.60;99.90
14119;DHT22;7138;49.246;9.100;2022-09-09T03:49:26;14.60;99.90
14119;DHT22;7138;49.246;9.100;2022-09-09T03:51:55;14.60;99.90
14119;DHT22;7138;49.246;9.100;2022-09-09T03:54:22;14.60;99.90
14119;DHT22;7138;49.246;9.100;2022-09-09T03:56:48;14.60;99.90
14119;DHT22;7138;49.246;9.100;2022-09-09T03:59:14;14.60;99.90
14119;DHT22;7138;49.246;9.100;2022-09-09T04:01:40;14.60;99.90
14119;DHT22;7138;49.246;9.100;2022-09-09T04:04:06;14.60;99.90
14119;DHT22;7138;49.246;9.100;2022-09-09T04:06:33;14.70;99.90
14119;DHT22;7138;49.246;9.100;2022-09-09T04:09:00;14.70;99.90
14119;DHT22;7138;49.246;9.100;2022-09-09T04:11:28;14.70;99.90
14119;DHT22;7138;49.246;9.100;2022-09-09T04:13:54;14.70;99.90
14119;DHT22;7138;49.246;9.100;2022-09-09T04:16:20;14.70;99.90
14119;DHT22;7138;49.246;9.100;2022-09-09T04:18:46;14.70;99.90
14119;DHT22;7138;49.246;9.100;2022-09-09T04:21:12;14.70;99.90
14119;DHT22;7138;49.246;9.100;2022-09-09T04:23:38;14.60;99.90
14119;DHT22;7138;49.246;9.100;2022-09-09T04:26:06;14.60;99.90
14119;DHT22;7138;49.246;9.100;2022-09-09T04:28:34;14.60;99.90
14119;DHT22;7138;49.246;9.100;2022-09-09T04:31:05;14.60;99.90
14119;DHT22;7138;49.246;9.100;2022-09-09T04:33:31;14.60;99.90
14119;DHT22;7138;49.246;9.100;2022-09-09T04:35:57;14.50;99.90
14119;DHT22;7138;49.246;9.100;2022-09-09T04:38:29;14.60;99.90
14119;DHT22;7138;49.246;9.100;2022-09-09T04:40:55;14.50;99.90
14119;DHT22;7138;49.246;9.100;2022-09-09T04:43:23;14.60;99.90
14119;DHT22;7138;49.246;9.100;2022-09-09T04:45:51;14.60;99.90
14119;DHT22;7138;49.246;9.100;2022-09-09T04:48:18;14.60;99.90
14119;DHT22;7138;49.246;9.100;2022-09-09T04:50:54;14.50;99.90
14119;DHT22;7138;49.246;9.100;2022-09-09T04:53:21;14.50;99.90
14119;DHT22;7138;49.246;9.100;2022-09-09T04:55:47;14.40;99.90
14119;DHT22;7138;49.246;9.100;2022-09-09T04:58:14;14.40;99.90
14119;DHT22;7138;49.246;9.100;2022-09-09T05:00:42;14.40;99.90
14119;DHT22;7138;49.246;9.100;2022-09-09T05:03:08;14.40;99.90
14119;DHT22;7138;49.246;9.100;2022-09-09T05:05:34;14.40;99.90
14119;DHT22;7138;49.246;9.100;2022-09-09T05:08:01;14.30;99.90
14119;DHT22;7138;49.246;9.100;2022-09-09T05:10:28;14.30;99.90
14119;DHT22;7138;49.246;9.100;2022-09-09T05:12:54;14.30;99.90
14119;DHT22;7138;49.246;9.100;2022-09-09T05:15:20;14.40;99.90
14119;DHT22;7138;49.246;9.100;2022-09-09T05:17:50;14.40;99.90
14119;DHT22;7138;49.246;9.100;2022-09-09T05:20:18;14.50;99.90
14119;DHT22;7138;49.246;9.100;2022-09-09T05:22:44;14.50;99.90
14119;DHT22;7138;49.246;9.100;2022-09-09T05:25:10;14.50;99.90
14119;DHT22;7138;49.246;9.100;2022-09-09T05:27:36;14.50;99.90
14119;DHT22;7138;49.246;9.100;2022-09-09T05:30:03;14.50;99.90
14119;DHT22;7138;49.246;9.100;2022-09-09T05:32:30;14.60;99.90
14119;DHT22;7138;49.246;9.100;2022-09-09T05:35:00;14.60;99.90
14119;DHT22;7138;49.246;9.100;2022-09-09T05:37:26;14.60;99.90
14119;DHT22;7138;49.246;9.100;2022-09-09T05:39:52;14.60;99.90
14119;DHT22;7138;49.246;9.100;2022-09-09T05:42:18;14.50;99.90
14119;DHT22;7138;49.246;9.100;2022-09-09T05:44:44;14.50;99.90
14119;DHT22;7138;49.246;9.100;2022-09-09T05:47:10;14.60;99.90
14119;DHT22;7138;49.246;9.100;2022-09-09T05:49:37;14.60;99.90
14119;DHT22;7138;49.246;9.100;2022-09-09T05:52:04;14.50;99.90
14119;DHT22;7138;49.246;9.100;2022-09-09T05:54:30;14.50;99.90
14119;DHT22;7138;49.246;9.100;2022-09-09T05:56:56;14.60;99.90
14119;DHT22;7138;49.246;9.100;2022-09-09T05:59:22;14.70;99.90
14119;DHT22;7138;49.246;9.100;2022-09-09T06:01:49;14.70;99.90
14119;DHT22;7138;49.246;9.100;2022-09-09T06:04:14;14.70;99.90
14119;DHT22;7138;49.246;9.100;2022-09-09T06:06:41;14.90;99.90
14119;DHT22;7138;49.246;9.100;2022-09-09T06:09:09;15.00;99.90
14119;DHT22;7138;49.246;9.100;2022-09-09T06:11:36;15.40;99.90
14119;DHT22;7138;49.246;9.100;2022-09-09T06:14:04;15.40;99.90
14119;DHT22;7138;49.246;9.100;2022-09-09T06:16:31;15.40;99.90
14119;DHT22;7138;49.246;9.100;2022-09-09T06:18:59;15.50;99.90
14119;DHT22;7138;49.246;9.100;2022-09-09T06:21:26;15.50;99.90
14119;DHT22;7138;49.246;9.100;2022-09-09T06:23:54;15.50;99.90
14119;DHT22;7138;49.246;9.100;2022-09-09T06:26:22;15.50;99.90
14119;DHT22;7138;49.246;9.100;2022-09-09T06:28:51;15.40;99.90
14119;DHT22;7138;49.246;9.100;2022-09-09T06:31:20;15.40;99.90
14119;DHT22;7138;49.246;9.100;2022-09-09T06:33:49;15.50;99.90
14119;DHT22;7138;49.246;9.100;2022-09-09T06:36:17;15.60;99.90
14119;DHT22;7138;49.246;9.100;2022-09-09T06:38:44;15.70;99.90
14119;DHT22;7138;49.246;9.100;2022-09-09T06:41:13;15.70;99.90
14119;DHT22;7138;49.246;9.100;2022-09-09T06:43:42;15.80;99.90
14119;DHT22;7138;49.246;9.100;2022-09-09T06:46:10;15.80;99.90
14119;DHT22;7138;49.246;9.100;2022-09-09T06:48:38;15.90;99.90
14119;DHT22;7138;49.246;9.100;2022-09-09T06:51:07;16.10;99.90
14119;DHT22;7138;49.246;9.100;2022-09-09T06:53:35;16.30;99.90
14119;DHT22;7138;49.246;9.100;2022-09-09T06:56:18;16.30;99.90
14119;DHT22;7138;49.246;9.100;2022-09-09T06:58:48;16.30;99.90
14119;DHT22;7138;49.246;9.100;2022-09-09T07:01:16;16.40;99.90
14119;DHT22;7138;49.246;9.100;2022-09-09T07:03:46;16.60;99.90
14119;DHT22;7138;49.246;9.100;2022-09-09T07:06:14;16.70;99.90
14119;DHT22;7138;49.246;9.100;2022-09-09T07:08:49;16.80;99.90
14119;DHT22;7138;49.246;9.100;2022-09-09T07:11:16;16.90;99.90
14119;DHT22;7138;49.246;9.100;2022-09-09T07:13:42;16.90;99.90
14119;DHT22;7138;49.246;9.100;2022-09-09T07:16:10;16.90;99.90
14119;DHT22;7138;49.246;9.100;2022-09-09T07:18:39;17.00;99.90
14119;DHT22;7138;49.246;9.100;2022-09-09T07:21:07;17.10;99.90
14119;DHT22;7138;49.246;9.100;2022-09-09T07:23:35;17.10;99.90
14119;DHT22;7138;49.246;9.100;2022-09-09T07:26:01;17.10;99.90
14119;DHT22;7138;49.246;9.100;2022-09-09T07:28:28;17.30;99.90
14119;DHT22;7138;49.246;9.100;2022-09-09T07:30:59;17.40;99.90
14119;DHT22;7138;49.246;9.100;2022-09-09T07:33:31;17.50;99.90
14119;DHT22;7138;49.246;9.100;2022-09-09T07:36:04;17.60;99.90
14119;DHT22;7138;49.246;9.100;2022-09-09T07:38:37;18.20;99.90
14119;DHT22;7138;49.246;9.100;2022-09-09T07:41:04;19.10;99.90
14119;DHT22;7138;49.246;9.100;2022-09-09T07:43:32;19.80;99.90
14119;DHT22;7138;49.246;9.100;2022-09-09T07:45:59;20.40;99.90
14119;DHT22;7138;49.246;9.100;2022-09-09T07:48:29;20.30;99.90
14119;DHT22;7138;49.246;9.100;2022-09-09T07:51:08;20.30;99.90
14119;DHT22;7138;49.246;9.100;2022-09-09T07:53:37;20.00;99.90
14119;DHT22;7138;49.246;9.100;2022-09-09T07:56:05;20.00;99.90
14119;DHT22;7138;49.246;9.100;2022-09-09T07:58:32;20.10;99.90
14119;DHT22;7138;49.246;9.100;2022-09-09T08:00:58;20.00;99.90
14119;DHT22;7138;49.246;9.100;2022-09-09T08:03:24;19.90;99.90
14119;DHT22;7138;49.246;9.100;2022-09-09T08:05:51;19.80;99.90
14119;DHT22;7138;49.246;9.100;2022-09-09T08:08:17;19.40;99.90
14119;DHT22;7138;49.246;9.100;2022-09-09T08:10:43;19.20;99.90
14119;DHT22;7138;49.246;9.100;2022-09-09T08:13:09;19.00;99.90
14119;DHT22;7138;49.246;9.100;2022-09-09T08:15:35;19.50;99.90
14119;DHT22;7138;49.246;9.100;2022-09-09T08:18:01;20.20;99.90
14119;DHT22;7138;49.246;9.100;2022-09-09T08:20:29;20.10;99.90
14119;DHT22;7138;49.246;9.100;2022-09-09T08:22:56;19.90;99.90
14119;DHT22;7138;49.246;9.100;2022-09-09T08:25:22;20.00;99.90
14119;DHT22;7138;49.246;9.100;2022-09-09T08:27:48;20.50;99.90
14119;DHT22;7138;49.246;9.100;2022-09-09T08:30:14;21.00;99.90
14119;DHT22;7138;49.246;9.100;2022-09-09T08:32:40;21.30;99.90
14119;DHT22;7138;49.246;9.100;2022-09-09T08:35:07;20.90;99.90
14119;DHT22;7138;49.246;9.100;2022-09-09T08:37:33;20.50;99.90
14119;DHT22;7138;49.246;9.100;2022-09-09T08:40:01;20.10;99.90
14119;DHT22;7138;49.246;9.100;2022-09-09T08:42:35;20.00;99.90
14119;DHT22;7138;49.246;9.100;2022-09-09T08:48:16;19.60;99.90
14119;DHT22;7138;49.246;9.100;2022-09-09T08:51:03;20.40;99.90
14119;DHT22;7138;49.246;9.100;2022-09-09T08:53:38;20.90;99.90
14119;DHT22;7138;49.246;9.100;2022-09-09T08:56:12;21.30;99.90
14119;DHT22;7138;49.246;9.100;2022-09-09T08:58:45;21.70;99.90
14119;DHT22;7138;49.246;9.100;2022-09-09T09:01:40;21.90;99.90
14119;DHT22;7138;49.246;9.100;2022-09-09T09:04:21;22.20;99.90
14119;DHT22;7138;49.246;9.100;2022-09-09T09:07:05;22.40;99.90
14119;DHT22;7138;49.246;9.100;2022-09-09T09:09:43;22.70;99.90
14119;DHT22;7138;49.246;9.100;2022-09-09T09:12:22;22.80;99.90
14119;DHT22;7138;49.246;9.100;2022-09-09T09:14:50;21.70;99.90
14119;DHT22;7138;49.246;9.100;2022-09-09T09:17:18;21.00;99.90
14119;DHT22;7138;49.246;9.100;2022-09-09T09:19:46;20.50;99.90
14119;DHT22;7138;49.246;9.100;2022-09-09T09:22:18;20.30;99.90
14119;DHT22;7138;49.246;9.100;2022-09-09T09:24:51;21.20;99.90
14119;DHT22;7138;49.246;9.100;2022-09-09T09:27:30;21.00;99.90
14119;DHT22;7138;49.246;9.100;2022-09-09T09:29:59;20.70;99.90
14119;DHT22;7138;49.246;9.100;2022-09-09T09:32:32;20.50;99.90
14119;DHT22;7138;49.246;9.100;2022-09-09T09:35:02;20.10;99.90
14119;DHT22;7138;49.246;9.100;2022-09-09T09:37:35;19.50;99.90
14119;DHT22;7138;49.246;9.100;2022-09-09T09:40:11;18.70;99.90
14119;DHT22;7138;49.246;9.100;2022-09-09T09:42:48;17.90;99.90
14119;DHT22;7138;49.246;9.100;2022-09-09T09:45:25;16.80;99.90
14119;DHT22;7138;49.246;9.100;2022-09-09T09:47:59;16.00;99.90
14119;DHT22;7138;49.246;9.100;2022-09-09T09:50:27;15.50;99.90
14119;DHT22;7138;49.246;9.100;2022-09-09T09:52:55;15.40;99.90
14119;DHT22;7138;49.246;9.100;2022-09-09T09:55:23;15.40;99.90
14119;DHT22;7138;49.246;9.100;2022-09-09T09:57:51;15.70;99.90
14119;DHT22;7138;49.246;9.100;2022-09-09T10:00:20;16.30;99.90
14119;DHT22;7138;49.246;9.100;2022-09-09T10:02:48;16.90;99.90
14119;DHT22;7138;49.246;9.100;2022-09-09T10:05:19;17.50;99.90
14119;DHT22;7138;49.246;9.100;2022-09-09T10:07:46;18.10;99.90
14119;DHT22;7138;49.246;9.100;2022-09-09T10:10:39;18.60;99.90
14119;DHT22;7138;49.246;9.100;2022-09-09T10:13:20;18.90;99.90
14119;DHT22;7138;49.246;9.100;2022-09-09T10:16:02;19.00;99.90
14119;DHT22;7138;49.246;9.100;2022-09-09T10:18:45;19.40;99.90
14119;DHT22;7138;49.246;9.100;2022-09-09T10:21:38;19.60;99.90
14119;DHT22;7138;49.246;9.100;2022-09-09T10:24:39;20.00;99.90
14119;DHT22;7138;49.246;9.100;2022-09-09T10:27:20;20.00;99.90
14119;DHT22;7138;49.246;9.100;2022-09-09T10:30:03;20.60;99.90
14119;DHT22;7138;49.246;9.100;2022-09-09T10:32:41;20.70;99.90
14119;DHT22;7138;49.246;9.100;2022-09-09T10:35:19;20.40;99.90
14119;DHT22;7138;49.246;9.100;2022-09-09T10:41:12;20.20;99.90
14119;DHT22;7138;49.246;9.100;2022-09-09T10:47:20;20.40;99.90
14119;DHT22;7138;49.246;9.100;2022-09-09T10:50:18;20.70;99.90
14119;DHT22;7138;49.246;9.100;2022-09-09T10:53:02;20.90;99.90
14119;DHT22;7138;49.246;9.100;2022-09-09T10:55:40;21.20;99.90
14119;DHT22;7138;49.246;9.100;2022-09-09T10:58:10;21.40;99.90
14119;DHT22;7138;49.246;9.100;2022-09-09T11:00:45;21.60;99.90
14119;DHT22;7138;49.246;9.100;2022-09-09T11:03:20;21.50;99.90
14119;DHT22;7138;49.246;9.100;2022-09-09T11:05:53;21.60;99.90
14119;DHT22;7138;49.246;9.100;2022-09-09T11:08:25;21.70;99.90
14119;DHT22;7138;49.246;9.100;2022-09-09T11:10:57;21.70;99.90
14119;DHT22;7138;49.246;9.100;2022-09-09T11:13:35;21.80;99.90
14119;DHT22;7138;49.246;9.100;2022-09-09T11:16:15;21.80;99.90
14119;DHT22;7138;49.246;9.100;2022-09-09T11:18:49;21.90;99.90
14119;DHT22;7138;49.246;9.100;2022-09-09T11:21:18;22.00;99.90
14119;DHT22;7138;49.246;9.100;2022-09-09T11:23:52;21.50;99.90
14119;DHT22;7138;49.246;9.100;2022-09-09T11:26:27;21.10;99.90
14119;DHT22;7138;49.246;9.100;2022-09-09T11:29:09;21.10;99.90
14119;DHT22;7138;49.246;9.100;2022-09-09T11:32:04;20.90;99.90
14119;DHT22;7138;49.246;9.100;2022-09-09T11:34:51;20.70;99.90
14119;DHT22;7138;49.246;9.100;2022-09-09T11:37:47;20.80;99.90
14119;DHT22;7138;49.246;9.100;2022-09-09T11:40:33;21.00;99.90
14119;DHT22;7138;49.246;9.100;2022-09-09T11:43:05;21.40;99.90
14119;DHT22;7138;49.246;9.100;2022-09-09T11:45:38;21.50;99.90
14119;DHT22;7138;49.246;9.100;2022-09-09T11:48:23;21.20;99.90
14119;DHT22;7138;49.246;9.100;2022-09-09T11:51:02;20.90;99.90
14119;DHT22;7138;49.246;9.100;2022-09-09T11:53:31;20.90;99.90
14119;DHT22;7138;49.246;9.100;2022-09-09T11:56:06;21.30;99.90
14119;DHT22;7138;49.246;9.100;2022-09-09T11:58:41;21.60;99.90
14119;DHT22;7138;49.246;9.100;2022-09-09T12:01:28;21.30;99.90
14119;DHT22;7138;49.246;9.100;2022-09-09T12:07:00;21.30;99.90
14119;DHT22;7138;49.246;9.100;2022-09-09T12:09:43;21.90;99.90
14119;DHT22;7138;49.246;9.100;2022-09-09T12:12:27;22.00;99.90
14119;DHT22;7138;49.246;9.100;2022-09-09T12:15:01;22.30;99.90
14119;DHT22;7138;49.246;9.100;2022-09-09T12:17:47;22.20;99.90
14119;DHT22;7138;49.246;9.100;2022-09-09T12:20:17;21.50;99.90
14119;DHT22;7138;49.246;9.100;2022-09-09T12:22:58;21.30;99.90
14119;DHT22;7138;49.246;9.100;2022-09-09T12:25:57;21.10;99.90
14119;DHT22;7138;49.246;9.100;2022-09-09T12:28:42;21.50;99.90
14119;DHT22;7138;49.246;9.100;2022-09-09T12:31:22;21.70;99.90
14119;DHT22;7138;49.246;9.100;2022-09-09T12:33:51;21.30;99.90
14119;DHT22;7138;49.246;9.100;2022-09-09T12:36:19;21.10;99.90
14119;DHT22;7138;49.246;9.100;2022-09-09T12:38:50;21.20;99.90
14119;DHT22;7138;49.246;9.100;2022-09-09T12:41:22;21.30;99.90
14119;DHT22;7138;49.246;9.100;2022-09-09T12:43:50;21.50;99.90
14119;DHT22;7138;49.246;9.100;2022-09-09T12:46:25;21.80;99.90
14119;DHT22;7138;49.246;9.100;2022-09-09T12:48:58;21.90;99.90
14119;DHT22;7138;49.246;9.100;2022-09-09T12:51:27;22.10;99.90
14119;DHT22;7138;49.246;9.100;2022-09-09T12:53:57;22.70;99.90
14119;DHT22;7138;49.246;9.100;2022-09-09T12:56:26;22.90;99.90
14119;DHT22;7138;49.246;9.100;2022-09-09T12:58:56;22.80;99.90
14119;DHT22;7138;49.246;9.100;2022-09-09T13:01:26;22.70;99.90
14119;DHT22;7138;49.246;9.100;2022-09-09T13:03:53;22.70;99.90
14119;DHT22;7138;49.246;9.100;2022-09-09T13:06:21;22.40;99.90
14119;DHT22;7138;49.246;9.100;2022-09-09T13:08:48;22.40;99.90
14119;DHT22;7138;49.246;9.100;2022-09-09T13:11:18;22.50;99.90
14119;DHT22;7138;49.246;9.100;2022-09-09T13:13:51;22.40;99.90
14119;DHT22;7138;49.246;9.100;2022-09-09T13:16:22;22.30;99.90
14119;DHT22;7138;49.246;9.100;2022-09-09T13:18:50;22.60;99.90
14119;DHT22;7138;49.246;9.100;2022-09-09T13:21:17;22.90;99.90
14119;DHT22;7138;49.246;9.100;2022-09-09T13:23:48;22.80;99.90
14119;DHT22;7138;49.246;9.100;2022-09-09T13:26:23;22.70;99.90
14119;DHT22;7138;49.246;9.100;2022-09-09T13:28:51;22.40;99.90
14119;DHT22;7138;49.246;9.100;2022-09-09T13:31:21;22.50;99.90
14119;DHT22;7138;49.246;9.100;2022-09-09T13:33:48;22.50;99.90
14119;DHT22;7138;49.246;9.100;2022-09-09T13:36:14;22.20;99.90
14119;DHT22;7138;49.246;9.100;2022-09-09T13:38:53;22.00;99.90
14119;DHT22;7138;49.246;9.100;2022-09-09T13:41:22;21.90;99.90
14119;DHT22;7138;49.246;9.100;2022-09-09T13:43:50;21.50;99.90
14119;DHT22;7138;49.246;9.100;2022-09-09T13:46:27;21.30;99.90
14119;DHT22;7138;49.246;9.100;2022-09-09T13:48:58;20.90;99.90
14119;DHT22;7138;49.246;9.100;2022-09-09T13:51:33;20.80;99.90
14119;DHT22;7138;49.246;9.100;2022-09-09T13:54:00;20.70;99.90
14119;DHT22;7138;49.246;9.100;2022-09-09T13:56:28;20.60;99.90
14119;DHT22;7138;49.246;9.100;2022-09-09T13:58:54;20.20;99.90
14119;DHT22;7138;49.246;9.100;2022-09-09T14:01:20;19.70;99.90
14119;DHT22;7138;49.246;9.100;2022-09-09T14:03:46;19.30;99.90
14119;DHT22;7138;49.246;9.100;2022-09-09T14:06:12;19.10;99.90
14119;DHT22;7138;49.246;9.100;2022-09-09T14:08:39;18.90;99.90
14119;DHT22;7138;49.246;9.100;2022-09-09T14:11:07;18.80;99.90
14119;DHT22;7138;49.246;9.100;2022-09-09T14:13:37;18.60;99.90
14119;DHT22;7138;49.246;9.100;2022-09-09T14:16:04;19.00;99.90
14119;DHT22;7138;49.246;9.100;2022-09-09T14:18:30;19.50;99.90
14119;DHT22;7138;49.246;9.100;2022-09-09T14:20:55;19.90;99.90
14119;DHT22;7138;49.246;9.100;2022-09-09T14:23:22;20.10;99.90
14119;DHT22;7138;49.246;9.100;2022-09-09T14:25:50;20.00;99.90
14119;DHT22;7138;49.246;9.100;2022-09-09T14:28:16;19.90;99.90
14119;DHT22;7138;49.246;9.100;2022-09-09T14:30:44;19.80;99.90
14119;DHT22;7138;49.246;9.100;2022-09-09T14:33:13;19.70;99.90
14119;DHT22;7138;49.246;9.100;2022-09-09T14:35:41;19.70;99.90
14119;DHT22;7138;49.246;9.100;2022-09-09T14:38:08;19.50;99.90
14119;DHT22;7138;49.246;9.100;2022-09-09T14:40:35;19.40;99.90
14119;DHT22;7138;49.246;9.100;2022-09-09T14:43:02;19.30;99.90
14119;DHT22;7138;49.246;9.100;2022-09-09T14:45:28;19.20;99.90
14119;DHT22;7138;49.246;9.100;2022-09-09T14:47:55;19.10;99.90
14119;DHT22;7138;49.246;9.100;2022-09-09T14:50:23;19.00;99.90
14119;DHT22;7138;49.246;9.100;2022-09-09T14:52:49;18.90;99.90
14119;DHT22;7138;49.246;9.100;2022-09-09T14:55:16;18.70;99.90
14119;DHT22;7138;49.246;9.100;2022-09-09T14:57:42;18.60;99.90
14119;DHT22;7138;49.246;9.100;2022-09-09T15:00:10;18.40;99.90
14119;DHT22;7138;49.246;9.100;2022-09-09T15:02:36;18.30;99.90
14119;DHT22;7138;49.246;9.100;2022-09-09T15:05:05;18.30;99.90
14119;DHT22;7138;49.246;9.100;2022-09-09T15:07:31;18.40;99.90
14119;DHT22;7138;49.246;9.100;2022-09-09T15:09:57;18.50;99.90
14119;DHT22;7138;49.246;9.100;2022-09-09T15:12:24;18.40;99.90
14119;DHT22;7138;49.246;9.100;2022-09-09T15:14:49;18.40;99.90
14119;DHT22;7138;49.246;9.100;2022-09-09T15:17:16;18.30;99.90
14119;DHT22;7138;49.246;9.100;2022-09-09T15:19:42;18.50;99.90
14119;DHT22;7138;49.246;9.100;2022-09-09T15:22:09;18.60;99.90
14119;DHT22;7138;49.246;9.100;2022-09-09T15:24:35;18.70;99.90
14119;DHT22;7138;49.246;9.100;2022-09-09T15:27:01;18.80;99.90
14119;DHT22;7138;49.246;9.100;2022-09-09T15:29:27;18.80;99.90
14119;DHT22;7138;49.246;9.100;2022-09-09T15:31:54;19.00;99.90
14119;DHT22;7138;49.246;9.100;2022-09-09T15:34:21;19.00;99.90
14119;DHT22;7138;49.246;9.100;2022-09-09T15:36:47;18.90;99.90
14119;DHT22;7138;49.246;9.100;2022-09-09T15:39:16;18.80;99.90
14119;DHT22;7138;49.246;9.100;2022-09-09T15:41:43;18.70;99.90
14119;DHT22;7138;49.246;9.100;2022-09-09T15:44:11;18.60;99.90
14119;DHT22;7138;49.246;9.100;2022-09-09T15:46:38;18.50;99.90
14119;DHT22;7138;49.246;9.100;2022-09-09T15:49:07;18.40;99.90
14119;DHT22;7138;49.246;9.100;2022-09-09T15:51:35;18.30;99.90
14119;DHT22;7138;49.246;9.100;2022-09-09T15:54:03;18.30;99.90
14119;DHT22;7138;49.246;9.100;2022-09-09T15:56:31;18.30;99.90
14119;DHT22;7138;49.246;9.100;2022-09-09T15:58:58;18.30;99.90
14119;DHT22;7138;49.246;9.100;2022-09-09T16:01:26;18.20;99.90
14119;DHT22;7138;49.246;9.100;2022-09-09T16:03:53;18.20;99.90
14119;DHT22;7138;49.246;9.100;2022-09-09T16:06:21;18.10;99.90
14119;DHT22;7138;49.246;9.100;2022-09-09T16:08:49;18.10;99.90
14119;DHT22;7138;49.246;9.100;2022-09-09T16:11:18;18.10;99.90
14119;DHT22;7138;49.246;9.100;2022-09-09T16:13:48;18.10;99.90
14119;DHT22;7138;49.246;9.100;2022-09-09T16:16:17;18.10;99.90
14119;DHT22;7138;49.246;9.100;2022-09-09T16:18:49;18.00;99.90
14119;DHT22;7138;49.246;9.100;2022-09-09T16:21:19;18.00;99.90
14119;DHT22;7138;49.246;9.100;2022-09-09T16:23:49;18.00;99.90